KJYG

Details ICAO KJYG
Name ST JAMES MUNI
Region United States
Timezone America/Chicago (UTC-5.0)
Plans Departing 0
Arriving 0
Stats Elevation 1,067 ft / 325 m (AMSL)
Location 43.986319° -94.557937°
Runways 1
Magnetic Variation 1.310° E
Sunrise 2018-05-24 10:45:08 UTC / 2018-05-24 05:45:08 Local
Sunset 2018-05-25 01:47:55 UTC / 2018-05-24 20:47:55 Local
Advertisement - Login to hide

Runways

ID Width Length Bearing (true) Bearing (mag) Surface Threshold Offset Overrun Length
15 75 ft / 23 m 4,000 ft / 1,219 m 149.29° 147.98° Asphalt 0 ft / 0 m 0 ft / 0 m
33 75 ft / 23 m 4,000 ft / 1,219 m 329.29° 327.98° Asphalt 0 ft / 0 m 0 ft / 0 m

Map

Weather


0- 5 10 15 20 25 30 35+ Temperature / ° C

Clouds and Precipitation
Forecast for 2018-05-24 12:00 UTC. Updated 5 hours ago

Ground ~20,000 ft ~40,000 ft Winds

METAR

KJYG 241615Z AUTO 15016G19KT CLR 26/19 A3000 RMK AO2

TAF

Not found

Frequencies

Unicom 122.90 MHz CTAF
Warning: Do not use this data for real-world aviation or navigation. No guarantee of current accuracy is given.